Cripple Creek, Colorado
Current Conditions -  °F | °C
As of 11:56 PM on Friday 24 Oct 2014 (Local Time) from KCWN Reporting Station
Clear Clear  
Wind Chill: 60°   Ceiling: Unl
Heat Index: 60°   Visibility: 10mi
Dew Point: 17°   Wind: 6mph
Humidity: 19%   Direction: 300°WNW
Pressure: 30.3"   Gusts: NA
Location:  38.75°N, 105.18°W
Report Text: KCWN 250556Z AUTO 30005KT 10SM CLR 16/M08 A3030 RMK AO2 SLP177 T01561082 10202 20156 50002
Loading
Personal Weather Stations






























Interactive Weather Map
Tropical Storm Tracking
New forecast layout! Learn more

10-Day Weather Forecast

Advertisements
Track Severe Weather on mobile